This is the latest recevied weather packets stored in our database for station/object KI6AOK. If no packets are shown the sender has not sent any weather packets the latest 10 day(s).
| Time | Temp. | Humidity | Pressure | Rain* | Wind** | Luminosity | Snow |
|---|---|---|---|---|---|---|---|
| 1777305358 | 16.11° C | 62% | 1016 hPa | 0 mm | - | 144 W/m² | - |
| 1777305058 | 16.67° C | 61% | 1016 hPa | 0 mm | - | 226 W/m² | - |
| 1777304752 | 15.56° C | 63% | 1015.9 hPa | 0 mm | - | 613 W/m² | - |
| 1777304450 | 15° C | 63% | 1016.1 hPa | 0 mm | - | 201 W/m² | - |
| 1777304148 | 15.56° C | 62% | 1016.1 hPa | 0 mm | - | 118 W/m² | - |
| 1777303844 | 16.11° C | 64% | 1015.9 hPa | 0 mm | - | 105 W/m² | - |
| 1777303541 | 16.67° C | 62% | 1015.8 hPa | 0 mm | - | 149 W/m² | - |
| 1777303239 | 16.11° C | 65% | 1015.8 hPa | 0 mm | - | 388 W/m² | - |
| 1777302937 | 15.56° C | 64% | 1015.8 hPa | 0 mm | - | 333 W/m² | - |
| 1777302633 | 15.56° C | 66% | 1016 hPa | 0 mm | - | 311 W/m² | - |
| 1777302332 | 15.56° C | 65% | 1016 hPa | 0 mm | - | 291 W/m² | - |
| 1777302029 | 15° C | 66% | 1015.8 hPa | 0 mm | - | 274 W/m² | - |
| 1777301727 | 15.56° C | 66% | 1015.9 hPa | 0 mm | - | 253 W/m² | - |
| 1777301424 | 15.56° C | 65% | 1015.9 hPa | 0 mm | - | 214 W/m² | - |
| 1777301120 | 15° C | 69% | 1015.9 hPa | 0 mm | - | 219 W/m² | - |
| 1777300818 | 14.44° C | 72% | 1015.8 hPa | 0 mm | - | 200 W/m² | - |
| 1777300516 | 13.89° C | 73% | 1015.7 hPa | 0 mm | - | 178 W/m² | - |
| 1777300213 | 13.89° C | 74% | 1015.5 hPa | 0 mm | - | 136 W/m² | - |
| 1777299909 | 14.44° C | 73% | 1015.4 hPa | 0 mm | - | 65 W/m² | - |
| 1777299606 | 14.44° C | 74% | 1015.5 hPa | 0 mm | - | 125 W/m² | - |
| 1777299305 | 13.33° C | 76% | 1015.4 hPa | 0 mm | - | 143 W/m² | - |
| 1777299001 | 13.89° C | 76% | 1015.4 hPa | 0 mm | - | 82 W/m² | - |
| 1777298699 | 13.33° C | 77% | 1015.4 hPa | 0 mm | - | 82 W/m² | - |
| 1777298395 | 13.33° C | 78% | 1015.3 hPa | 0 mm | - | 83 W/m² | - |
| 1777298091 | 12.78° C | 80% | 1015.1 hPa | 0 mm | - | 90 W/m² | - |
* Rain latest hour (hover to see other rain measurements)
** Current wind speed in m/s (hover to see current wind gust speed)